Time;durP1;ratioP1;P1;durP2;ratioP2;P2;SDS_P1;SDS_P2;PMS_P1;PMS_P2;Temp;Humidity;BMP_temperature;BMP_pressure;BME280_temperature;BME280_humidity;BME280_pressure;Samples;Min_cycle;Max_cycle;Signal;HPM_P1;HPM_P2
2022/03/20 00:00:44;;;;;;;10.65;6.90;;;;;;;;;;5111013;28;20425;-73
2022/03/20 00:03:10;;;;;;;12.05;6.75;;;;;;;;;;5095817;28;20020;-73
2022/03/20 00:05:38;;;;;;;12.02;6.95;;;;;;;;;;5110298;28;20027;-68
2022/03/20 00:08:08;;;;;;;13.68;7.22;;;;;;;;;;5111759;28;20022;-73
2022/03/20 00:10:34;;;;;;;13.00;6.68;;;;;;;;;;5112247;28;20100;-73
2022/03/20 00:12:59;;;;;;;9.68;6.60;;;;;;;;;;5103940;28;20024;-74
2022/03/20 00:15:24;;;;;;;11.40;6.55;;;;;;;;;;5092404;28;20020;-73
2022/03/20 00:17:49;;;;;;;11.07;6.57;;;;;;;;;;5103368;28;20425;-72
2022/03/20 00:20:15;;;;;;;10.18;6.85;;;;;;;;;;5110364;28;20038;-68
2022/03/20 00:22:40;;;;;;;10.48;6.50;;;;;;;;;;5110363;28;20054;-72
2022/03/20 00:25:05;;;;;;;10.60;7.50;;;;;;;;;;5095044;28;20186;-71
2022/03/20 00:27:31;;;;;;;11.18;7.47;;;;;;;;;;5106560;28;20539;-73
2022/03/20 00:29:56;;;;;;;11.73;6.60;;;;;;;;;;5108229;28;20036;-72
2022/03/20 00:32:22;;;;;;;9.25;6.13;;;;;;;;;;5101836;28;20024;-73
2022/03/20 00:34:48;;;;;;;10.88;6.60;;;;;;;;;;5097269;28;20016;-72
2022/03/20 00:37:13;;;;;;;9.30;6.38;;;;;;;;;;5100387;28;20023;-73
2022/03/20 00:39:38;;;;;;;10.57;6.57;;;;;;;;;;5111764;28;20026;-72
2022/03/20 00:42:04;;;;;;;12.65;7.15;;;;;;;;;;5109362;28;20032;-73
2022/03/20 00:44:29;;;;;;;8.95;6.78;;;;;;;;;;5110192;28;20449;-73
2022/03/20 00:46:54;;;;;;;11.52;6.88;;;;;;;;;;5093162;28;20046;-73
2022/03/20 00:49:20;;;;;;;10.32;6.85;;;;;;;;;;5091839;28;20429;-73
2022/03/20 00:51:45;;;;;;;12.93;7.40;;;;;;;;;;5103904;28;20059;-69
2022/03/20 00:54:10;;;;;;;10.30;6.75;;;;;;;;;;5112060;28;20536;-73
2022/03/20 00:56:36;;;;;;;9.10;6.13;;;;;;;;;;5106844;28;20036;-73
2022/03/20 00:59:01;;;;;;;13.00;6.55;;;;;;;;;;5110444;28;20436;-73
2022/03/20 01:01:28;;;;;;;9.82;6.82;;;;;;;;;;5108255;28;20421;-72
2022/03/20 01:03:53;;;;;;;11.40;7.13;;;;;;;;;;5104465;28;20115;-73
2022/03/20 01:06:20;;;;;;;10.63;6.30;;;;;;;;;;5095305;28;20111;-72
2022/03/20 01:08:45;;;;;;;12.18;7.07;;;;;;;;;;5099019;28;20016;-71
2022/03/20 01:11:10;;;;;;;11.43;6.78;;;;;;;;;;5110764;28;20515;-73
2022/03/20 01:13:35;;;;;;;10.13;7.53;;;;;;;;;;5108538;28;20054;-72
2022/03/20 01:16:01;;;;;;;11.18;7.35;;;;;;;;;;5109987;28;20078;-72
2022/03/20 01:18:26;;;;;;;12.75;6.88;;;;;;;;;;5111260;28;20019;-72
2022/03/20 01:20:52;;;;;;;9.65;7.32;;;;;;;;;;5091219;28;20403;-73
2022/03/20 01:23:20;;;;;;;9.82;7.15;;;;;;;;;;5098768;28;20058;-73
2022/03/20 01:25:46;;;;;;;11.95;7.75;;;;;;;;;;5107051;28;20107;-73
2022/03/20 01:28:11;;;;;;;11.80;7.00;;;;;;;;;;5093378;28;20115;-73
2022/03/20 01:30:36;;;;;;;12.40;7.40;;;;;;;;;;5100007;28;20032;-73
2022/03/20 01:33:01;;;;;;;12.90;8.40;;;;;;;;;;5107886;28;20032;-73
2022/03/20 01:35:27;;;;;;;11.60;7.35;;;;;;;;;;5106299;28;20110;-73
2022/03/20 01:37:52;;;;;;;13.32;7.35;;;;;;;;;;5111442;28;20040;-73
2022/03/20 01:40:17;;;;;;;13.95;7.60;;;;;;;;;;5106885;28;20058;-73
2022/03/20 01:42:43;;;;;;;13.40;7.90;;;;;;;;;;5097959;28;20028;-73
2022/03/20 01:45:15;;;;;;;11.70;7.97;;;;;;;;;;5114097;28;20046;-73
2022/03/20 01:47:40;;;;;;;11.10;7.23;;;;;;;;;;5111329;28;20494;-73
2022/03/20 01:50:05;;;;;;;12.27;7.78;;;;;;;;;;5094590;28;20032;-73
2022/03/20 01:52:32;;;;;;;12.88;8.38;;;;;;;;;;5109087;28;20027;-73
2022/03/20 01:54:58;;;;;;;12.57;7.63;;;;;;;;;;5112459;28;20024;-73
2022/03/20 01:57:23;;;;;;;15.10;8.55;;;;;;;;;;5113918;27;20066;-74
2022/03/20 01:59:49;;;;;;;13.50;8.80;;;;;;;;;;5106178;28;20019;-73
2022/03/20 02:02:15;;;;;;;12.30;7.87;;;;;;;;;;5108951;28;20058;-72
2022/03/20 02:04:41;;;;;;;15.40;8.18;;;;;;;;;;5110721;28;20094;-72
2022/03/20 02:07:06;;;;;;;12.90;8.35;;;;;;;;;;5110140;27;20050;-72
2022/03/20 02:09:32;;;;;;;14.63;8.80;;;;;;;;;;5104294;28;20097;-72
2022/03/20 02:11:58;;;;;;;13.90;9.20;;;;;;;;;;5103705;28;20028;-72
2022/03/20 02:14:24;;;;;;;12.40;8.20;;;;;;;;;;5105803;28;20020;-72
2022/03/20 02:16:49;;;;;;;14.60;9.20;;;;;;;;;;5108908;28;20070;-72
2022/03/20 02:19:15;;;;;;;13.83;8.50;;;;;;;;;;5094223;28;20428;-68
2022/03/20 02:21:41;;;;;;;15.13;9.47;;;;;;;;;;5097728;28;20031;-72
2022/03/20 02:24:25;;;;;;;11.85;8.43;;;;;;;;;;5095634;28;20024;-72
2022/03/20 02:26:50;;;;;;;14.93;9.70;;;;;;;;;;5105931;28;20024;-72
2022/03/20 02:29:16;;;;;;;16.27;8.90;;;;;;;;;;5113963;28;20019;-71
2022/03/20 02:31:42;;;;;;;14.70;9.83;;;;;;;;;;5107991;28;20036;-72
2022/03/20 02:34:07;;;;;;;14.83;9.33;;;;;;;;;;5103729;28;20111;-72
2022/03/20 02:36:36;;;;;;;15.63;8.63;;;;;;;;;;5094502;28;20110;-72
2022/03/20 02:39:02;;;;;;;12.53;8.73;;;;;;;;;;5098050;28;20026;-71
2022/03/20 02:41:28;;;;;;;12.33;8.63;;;;;;;;;;5095105;28;20031;-71
2022/03/20 02:43:53;;;;;;;12.80;9.37;;;;;;;;;;5104050;28;20053;-72
2022/03/20 02:46:18;;;;;;;15.80;8.97;;;;;;;;;;5102813;28;20040;-72
2022/03/20 02:48:45;;;;;;;14.07;9.67;;;;;;;;;;5113185;28;20198;-72
2022/03/20 02:51:11;;;;;;;14.70;9.10;;;;;;;;;;5113014;28;20031;-72
2022/03/20 02:53:36;;;;;;;13.97;9.20;;;;;;;;;;5112375;28;20011;-72
2022/03/20 02:56:02;;;;;;;13.23;9.20;;;;;;;;;;5100118;28;20044;-72
2022/03/20 02:58:27;;;;;;;13.70;9.23;;;;;;;;;;5103156;28;20051;-72
2022/03/20 03:00:54;;;;;;;16.50;10.10;;;;;;;;;;5110468;28;20038;-72
2022/03/20 03:03:20;;;;;;;16.33;10.47;;;;;;;;;;5108737;28;20023;-72
2022/03/20 03:05:45;;;;;;;16.43;10.57;;;;;;;;;;5098406;28;20024;-72
2022/03/20 03:10:55;;;;;;;15.83;9.83;;;;;;;;;;5100611;28;20504;-72
2022/03/20 03:13:21;;;;;;;13.97;9.63;;;;;;;;;;5113475;28;20031;-72
2022/03/20 03:15:47;;;;;;;17.40;10.17;;;;;;;;;;5112482;28;20019;-72
2022/03/20 03:18:12;;;;;;;15.93;9.93;;;;;;;;;;5110595;28;20039;-74
2022/03/20 03:20:37;;;;;;;12.87;9.60;;;;;;;;;;5108325;28;20031;-72
2022/03/20 03:23:03;;;;;;;16.33;9.73;;;;;;;;;;5109589;28;20034;-73
2022/03/20 03:25:30;;;;;;;15.50;10.40;;;;;;;;;;5097357;28;20070;-72
2022/03/20 03:27:55;;;;;;;16.87;10.50;;;;;;;;;;5112847;28;20026;-72
2022/03/20 03:30:21;;;;;;;15.97;10.53;;;;;;;;;;5105569;28;20032;-73
2022/03/20 03:32:46;;;;;;;18.40;10.97;;;;;;;;;;5113348;27;20483;-72
2022/03/20 03:37:58;;;;;;;16.23;9.97;;;;;;;;;;5093274;28;20380;-72
2022/03/20 03:40:24;;;;;;;17.27;11.07;;;;;;;;;;5097884;28;20023;-72
2022/03/20 03:42:49;;;;;;;16.23;10.23;;;;;;;;;;5111655;28;20016;-72
2022/03/20 03:45:14;;;;;;;14.53;10.53;;;;;;;;;;5108162;28;20028;-72
2022/03/20 03:47:42;;;;;;;17.10;11.60;;;;;;;;;;5108557;28;20028;-72
2022/03/20 03:50:08;;;;;;;17.40;10.90;;;;;;;;;;5098046;28;20068;-73
2022/03/20 03:52:33;;;;;;;18.27;11.00;;;;;;;;;;5107629;28;20114;-71
2022/03/20 03:54:58;;;;;;;16.83;11.07;;;;;;;;;;5107468;28;20039;-72
2022/03/20 03:57:23;;;;;;;18.43;11.70;;;;;;;;;;5103295;28;20282;-72
2022/03/20 03:59:49;;;;;;;14.77;10.87;;;;;;;;;;5101650;28;20035;-73
2022/03/20 04:02:14;;;;;;;16.77;11.83;;;;;;;;;;5112657;28;20123;-73
2022/03/20 04:04:41;;;;;;;19.73;11.77;;;;;;;;;;5112391;28;20519;-73
2022/03/20 04:07:06;;;;;;;18.80;11.47;;;;;;;;;;5108603;28;20035;-73
2022/03/20 04:09:31;;;;;;;19.50;11.57;;;;;;;;;;5102748;28;20027;-73
2022/03/20 04:11:57;;;;;;;17.17;10.80;;;;;;;;;;5095565;28;20030;-72
2022/03/20 04:14:22;;;;;;;17.40;11.40;;;;;;;;;;5111405;27;20018;-73
2022/03/20 04:16:48;;;;;;;16.73;11.43;;;;;;;;;;5096506;28;20027;-72
2022/03/20 04:19:13;;;;;;;18.77;12.03;;;;;;;;;;5108783;28;20019;-72
2022/03/20 04:21:38;;;;;;;17.43;10.90;;;;;;;;;;5110162;28;20031;-73
2022/03/20 04:24:04;;;;;;;16.43;11.00;;;;;;;;;;5111932;28;20035;-73
2022/03/20 04:26:29;;;;;;;19.10;11.70;;;;;;;;;;5106446;28;20028;-73
2022/03/20 04:28:55;;;;;;;18.47;11.27;;;;;;;;;;5100562;28;20019;-69
2022/03/20 04:31:20;;;;;;;17.00;11.27;;;;;;;;;;5108274;28;20019;-72
2022/03/20 04:33:47;;;;;;;18.83;11.43;;;;;;;;;;5111434;28;20022;-73
2022/03/20 04:36:13;;;;;;;17.27;11.13;;;;;;;;;;5111696;28;20071;-72
2022/03/20 04:38:38;;;;;;;18.13;11.47;;;;;;;;;;5108521;28;20464;-72
2022/03/20 04:41:03;;;;;;;17.07;10.73;;;;;;;;;;5092044;28;20038;-72
2022/03/20 04:43:29;;;;;;;17.37;10.57;;;;;;;;;;5093009;28;20043;-72
2022/03/20 04:45:54;;;;;;;16.20;11.10;;;;;;;;;;5097686;28;20444;-72
2022/03/20 04:59:14;;;;;;;16.63;9.93;;;;;;;;;;5109786;28;20502;-72
2022/03/20 05:01:40;;;;;;;16.20;10.17;;;;;;;;;;5099813;28;20028;-72
2022/03/20 05:04:05;;;;;;;15.23;10.10;;;;;;;;;;5097262;28;20475;-70
2022/03/20 05:06:30;;;;;;;15.07;10.23;;;;;;;;;;5099314;28;20039;-73
2022/03/20 05:13:19;;;;;;;15.40;9.87;;;;;;;;;;5106024;28;20066;-73
2022/03/20 05:14:25;;;;;;;16.40;10.00;;;;;;;;;;5093139;28;20459;-69
2022/03/20 05:16:52;;;;;;;16.43;10.13;;;;;;;;;;5102446;28;20459;-71
2022/03/20 05:19:18;;;;;;;14.93;9.27;;;;;;;;;;5112510;28;20068;-71
2022/03/20 05:21:43;;;;;;;14.70;9.40;;;;;;;;;;5099999;28;20029;-71
2022/03/20 05:24:09;;;;;;;15.03;9.73;;;;;;;;;;5115076;28;20392;-70
2022/03/20 05:26:34;;;;;;;15.30;9.73;;;;;;;;;;5110178;28;20020;-72
2022/03/20 05:28:59;;;;;;;13.63;9.47;;;;;;;;;;5115273;28;20055;-72
2022/03/20 05:31:24;;;;;;;14.13;9.97;;;;;;;;;;5107077;28;20031;-72
2022/03/20 05:33:50;;;;;;;14.80;10.37;;;;;;;;;;5099047;28;20030;-72
2022/03/20 05:36:15;;;;;;;13.80;10.20;;;;;;;;;;5114885;28;20110;-69
2022/03/20 05:38:40;;;;;;;16.20;9.27;;;;;;;;;;5114508;28;20028;-75
2022/03/20 05:43:52;;;;;;;15.40;10.27;;;;;;;;;;5106500;28;20164;-72
2022/03/20 05:46:17;;;;;;;16.80;9.77;;;;;;;;;;5096982;28;20022;-73
2022/03/20 05:48:42;;;;;;;13.17;9.73;;;;;;;;;;5112904;28;20046;-73
2022/03/20 05:51:08;;;;;;;15.20;9.30;;;;;;;;;;5095407;28;20388;-73
2022/03/20 05:53:33;;;;;;;12.67;9.20;;;;;;;;;;5084714;28;20070;-73
2022/03/20 05:58:42;;;;;;;15.43;9.67;;;;;;;;;;5114530;28;20049;-73
2022/03/20 06:01:08;;;;;;;14.93;9.40;;;;;;;;;;5096441;28;20535;-72
2022/03/20 06:03:35;;;;;;;13.37;9.80;;;;;;;;;;5102183;28;20020;-73
2022/03/20 06:06:00;;;;;;;15.10;9.63;;;;;;;;;;5107332;28;20028;-72
2022/03/20 06:08:25;;;;;;;13.27;9.43;;;;;;;;;;5109611;28;20123;-72
2022/03/20 06:10:50;;;;;;;13.07;8.67;;;;;;;;;;5111434;28;20039;-73
2022/03/20 06:13:16;;;;;;;13.80;9.60;;;;;;;;;;5100286;27;20034;-73
2022/03/20 06:15:41;;;;;;;14.80;10.20;;;;;;;;;;5110652;28;20098;-73
2022/03/20 06:18:06;;;;;;;14.87;9.43;;;;;;;;;;5113068;28;20016;-70
2022/03/20 06:20:35;;;;;;;13.27;9.47;;;;;;;;;;5101903;28;20028;-72
2022/03/20 06:23:00;;;;;;;15.00;9.77;;;;;;;;;;5108698;28;20062;-72
2022/03/20 06:25:25;;;;;;;13.83;9.37;;;;;;;;;;5099027;28;20063;-70
2022/03/20 06:27:51;;;;;;;13.63;9.00;;;;;;;;;;5114535;28;20031;-73
2022/03/20 06:30:17;;;;;;;15.73;9.13;;;;;;;;;;5107945;28;20031;-72
2022/03/20 06:32:44;;;;;;;12.47;8.63;;;;;;;;;;5097360;28;20027;-73
2022/03/20 06:35:10;;;;;;;14.57;8.38;;;;;;;;;;5111153;28;20490;-72
2022/03/20 06:37:39;;;;;;;13.63;9.73;;;;;;;;;;5108324;28;20020;-74
2022/03/20 06:40:05;;;;;;;14.10;8.80;;;;;;;;;;5103853;28;20015;-70
2022/03/20 06:42:31;;;;;;;13.07;9.05;;;;;;;;;;5110701;27;20019;-73
2022/03/20 06:44:57;;;;;;;13.95;8.63;;;;;;;;;;5098226;28;20059;-73
2022/03/20 06:47:24;;;;;;;12.85;8.60;;;;;;;;;;5102437;28;20024;-73
2022/03/20 06:49:49;;;;;;;11.77;8.43;;;;;;;;;;5104883;28;20020;-74
2022/03/20 06:52:14;;;;;;;12.70;9.30;;;;;;;;;;5096176;28;20123;-72
2022/03/20 06:54:39;;;;;;;11.02;8.20;;;;;;;;;;5092114;28;20020;-73
2022/03/20 06:57:05;;;;;;;16.35;8.93;;;;;;;;;;5109135;28;20434;-69
2022/03/20 06:59:30;;;;;;;11.73;8.60;;;;;;;;;;5112597;28;20388;-73
2022/03/20 07:01:55;;;;;;;12.63;7.60;;;;;;;;;;5099451;28;20084;-70
2022/03/20 07:04:21;;;;;;;12.90;8.15;;;;;;;;;;5108796;28;20038;-71
2022/03/20 07:06:46;;;;;;;12.13;8.20;;;;;;;;;;5108765;28;20035;-73
2022/03/20 07:09:12;;;;;;;12.25;8.48;;;;;;;;;;5112500;28;20023;-67
2022/03/20 07:11:37;;;;;;;12.68;8.48;;;;;;;;;;5105423;28;20032;-72
2022/03/20 07:14:03;;;;;;;11.73;8.85;;;;;;;;;;5109081;28;20026;-72
2022/03/20 07:16:30;;;;;;;13.43;8.48;;;;;;;;;;5094788;28;20020;-73
2022/03/20 07:18:56;;;;;;;11.73;8.52;;;;;;;;;;5099016;28;20378;-72
2022/03/20 07:21:21;;;;;;;11.32;7.60;;;;;;;;;;5103060;28;20085;-72
2022/03/20 07:23:47;;;;;;;12.63;8.23;;;;;;;;;;5092892;28;20487;-73
2022/03/20 07:31:40;;;;;;;9.93;6.93;;;;;;;;;;5108134;28;20072;-72
2022/03/20 07:34:05;;;;;;;11.27;8.55;;;;;;;;;;5110110;28;20028;-68
2022/03/20 07:36:30;;;;;;;11.43;7.60;;;;;;;;;;5101653;28;20035;-71
2022/03/20 07:38:55;;;;;;;9.75;7.35;;;;;;;;;;5102061;28;20023;-71
2022/03/20 07:41:21;;;;;;;12.02;7.82;;;;;;;;;;5109078;28;20552;-71
2022/03/20 07:43:47;;;;;;;8.63;7.72;;;;;;;;;;5096162;28;20031;-71
2022/03/20 07:46:12;;;;;;;10.23;7.82;;;;;;;;;;5110647;28;20467;-71
2022/03/20 07:48:39;;;;;;;13.93;7.60;;;;;;;;;;5107957;28;20023;-72
2022/03/20 07:51:05;;;;;;;9.57;7.20;;;;;;;;;;5103499;28;20242;-73
2022/03/20 07:53:31;;;;;;;10.40;7.65;;;;;;;;;;5107253;28;20484;-72
2022/03/20 07:55:56;;;;;;;8.07;6.78;;;;;;;;;;5105196;28;20016;-72
2022/03/20 07:58:22;;;;;;;9.07;6.47;;;;;;;;;;5111479;28;20031;-72
2022/03/20 08:00:47;;;;;;;11.15;7.38;;;;;;;;;;5100364;28;20020;-73
2022/03/20 08:03:12;;;;;;;10.13;6.93;;;;;;;;;;5091773;28;20024;-73
2022/03/20 08:05:38;;;;;;;9.32;7.20;;;;;;;;;;5082383;28;20035;-72
2022/03/20 08:08:03;;;;;;;11.75;7.10;;;;;;;;;;5112983;28;20019;-72
2022/03/20 08:10:28;;;;;;;9.77;7.03;;;;;;;;;;5104965;28;20027;-73
2022/03/20 08:12:54;;;;;;;7.68;6.80;;;;;;;;;;5103614;28;20012;-73
2022/03/20 08:15:19;;;;;;;9.85;7.22;;;;;;;;;;5092302;28;20046;-72
2022/03/20 08:17:45;;;;;;;10.48;6.88;;;;;;;;;;5092537;28;20031;-74
2022/03/20 08:20:11;;;;;;;12.07;7.03;;;;;;;;;;5092382;28;20047;-71
2022/03/20 08:22:37;;;;;;;11.80;6.95;;;;;;;;;;5109850;28;20034;-71
2022/03/20 08:25:02;;;;;;;10.25;7.03;;;;;;;;;;5107478;28;20015;-73
2022/03/20 08:27:28;;;;;;;10.80;6.68;;;;;;;;;;5110097;28;20474;-73
2022/03/20 08:29:54;;;;;;;8.18;6.45;;;;;;;;;;5110161;28;20024;-71
2022/03/20 08:32:19;;;;;;;11.13;6.93;;;;;;;;;;5107923;28;20024;-73
2022/03/20 08:34:44;;;;;;;10.32;7.30;;;;;;;;;;5103342;28;20023;-74
2022/03/20 08:37:09;;;;;;;8.85;6.70;;;;;;;;;;5111921;28;20511;-73
2022/03/20 08:39:35;;;;;;;7.93;6.50;;;;;;;;;;5110068;28;20487;-74
2022/03/20 08:42:00;;;;;;;9.88;6.53;;;;;;;;;;5094182;28;20467;-72
2022/03/20 08:44:26;;;;;;;7.32;5.82;;;;;;;;;;5102224;28;20028;-72
2022/03/20 08:46:54;;;;;;;8.73;6.20;;;;;;;;;;5108208;28;20447;-70
2022/03/20 08:49:19;;;;;;;9.52;6.25;;;;;;;;;;5091645;28;20016;-71
2022/03/20 08:51:44;;;;;;;10.32;6.63;;;;;;;;;;5104372;28;20034;-72
2022/03/20 08:54:11;;;;;;;9.30;6.38;;;;;;;;;;5105365;28;20028;-72
2022/03/20 08:56:37;;;;;;;12.43;6.90;;;;;;;;;;5107123;28;20492;-72
2022/03/20 08:59:02;;;;;;;12.73;6.60;;;;;;;;;;5113761;27;20008;-72
2022/03/20 09:01:27;;;;;;;8.55;6.80;;;;;;;;;;5111158;28;20055;-72
2022/03/20 09:03:52;;;;;;;8.30;6.53;;;;;;;;;;5114803;28;20462;-72
2022/03/20 09:06:20;;;;;;;11.20;7.00;;;;;;;;;;5110965;28;20027;-71
2022/03/20 09:08:46;;;;;;;10.48;7.13;;;;;;;;;;5116663;28;20024;-72
2022/03/20 09:11:12;;;;;;;8.77;7.28;;;;;;;;;;5110044;28;20357;-71
2022/03/20 09:13:37;;;;;;;9.38;6.68;;;;;;;;;;5115687;28;20019;-71
2022/03/20 09:18:59;;;;;;;8.75;6.65;;;;;;;;;;5095984;28;20063;-62
2022/03/20 09:21:24;;;;;;;7.68;6.22;;;;;;;;;;5109543;28;20020;-62
2022/03/20 09:23:49;;;;;;;8.68;6.55;;;;;;;;;;5095829;28;20101;-61
2022/03/20 09:26:15;;;;;;;8.23;6.45;;;;;;;;;;5105442;28;20518;-63
2022/03/20 09:28:40;;;;;;;7.47;5.82;;;;;;;;;;5114739;28;21581;-63
2022/03/20 09:31:08;;;;;;;9.95;6.72;;;;;;;;;;5115539;28;20035;-64
2022/03/20 09:33:33;;;;;;;10.10;6.55;;;;;;;;;;5114323;28;20094;-70
2022/03/20 09:35:58;;;;;;;7.55;6.28;;;;;;;;;;5114823;28;20102;-63
2022/03/20 09:38:26;;;;;;;8.05;5.88;;;;;;;;;;5108682;28;20468;-62
2022/03/20 09:40:51;;;;;;;8.73;5.80;;;;;;;;;;5112501;28;20035;-62
2022/03/20 09:43:17;;;;;;;8.70;6.20;;;;;;;;;;5112532;28;20024;-62
2022/03/20 09:45:43;;;;;;;9.25;6.38;;;;;;;;;;5114837;28;20106;-63
2022/03/20 09:48:08;;;;;;;6.95;5.50;;;;;;;;;;5112280;28;20461;-62
2022/03/20 09:50:34;;;;;;;8.70;6.45;;;;;;;;;;5111373;27;20059;-62
2022/03/20 09:52:59;;;;;;;8.13;5.60;;;;;;;;;;5107990;27;20105;-62
2022/03/20 09:55:24;;;;;;;10.40;5.53;;;;;;;;;;5104735;28;20022;-62
2022/03/20 09:57:54;;;;;;;8.85;5.97;;;;;;;;;;5114391;28;20047;-62
2022/03/20 10:00:20;;;;;;;9.00;6.45;;;;;;;;;;5112055;28;20020;-62
2022/03/20 10:02:45;;;;;;;8.77;6.20;;;;;;;;;;5100175;28;20027;-66
2022/03/20 10:05:10;;;;;;;8.63;5.78;;;;;;;;;;5111731;28;20440;-61
2022/03/20 10:07:43;;;;;;;9.65;5.93;;;;;;;;;;5114212;28;20039;-63
2022/03/20 10:10:10;;;;;;;8.73;5.93;;;;;;;;;;5101707;28;20634;-61
2022/03/20 10:12:36;;;;;;;8.55;5.28;;;;;;;;;;5112428;27;20064;-61
2022/03/20 10:15:02;;;;;;;5.93;5.20;;;;;;;;;;5115338;28;20028;-63
2022/03/20 10:17:28;;;;;;;7.82;5.68;;;;;;;;;;5111813;28;20058;-62
2022/03/20 10:19:55;;;;;;;6.78;5.20;;;;;;;;;;5111335;28;20464;-62
2022/03/20 10:22:21;;;;;;;7.13;5.22;;;;;;;;;;5113362;28;20031;-62
2022/03/20 10:24:55;;;;;;;7.28;5.40;;;;;;;;;;5109530;28;20235;-62
2022/03/20 10:27:20;;;;;;;6.43;5.30;;;;;;;;;;5111026;28;20020;-63
2022/03/20 10:29:47;;;;;;;5.85;4.85;;;;;;;;;;5106017;28;20043;-62
2022/03/20 10:32:12;;;;;;;7.40;5.25;;;;;;;;;;5104873;28;20103;-62
2022/03/20 10:34:47;;;;;;;7.57;5.78;;;;;;;;;;5109447;28;20495;-62
2022/03/20 10:37:13;;;;;;;6.20;5.60;;;;;;;;;;5099023;28;20020;-63
2022/03/20 10:39:41;;;;;;;7.13;6.03;;;;;;;;;;5101639;28;20387;-62
2022/03/20 10:42:09;;;;;;;6.03;5.45;;;;;;;;;;5095709;28;20164;-62
2022/03/20 10:44:35;;;;;;;7.07;5.75;;;;;;;;;;5104327;28;20028;-61
2022/03/20 10:47:00;;;;;;;6.55;5.85;;;;;;;;;;5101943;28;20456;-62
2022/03/20 10:49:26;;;;;;;7.55;5.80;;;;;;;;;;5097638;28;20471;-62
2022/03/20 10:52:05;;;;;;;8.52;6.15;;;;;;;;;;5098387;28;20039;-61
2022/03/20 10:54:43;;;;;;;6.95;5.97;;;;;;;;;;5101101;28;20698;-62
2022/03/20 10:57:10;;;;;;;7.50;6.70;;;;;;;;;;5108270;28;20067;-63
2022/03/20 10:59:35;;;;;;;6.80;5.85;;;;;;;;;;5108150;28;20031;-63
2022/03/20 11:02:02;;;;;;;7.07;6.20;;;;;;;;;;5108921;28;20035;-62
2022/03/20 11:04:28;;;;;;;6.65;5.45;;;;;;;;;;5104824;28;20024;-57
2022/03/20 11:06:54;;;;;;;7.53;6.03;;;;;;;;;;5099135;28;20035;-63
2022/03/20 11:09:20;;;;;;;6.28;5.68;;;;;;;;;;5104117;28;20020;-62
2022/03/20 11:11:50;;;;;;;7.80;6.03;;;;;;;;;;5109187;28;20106;-62
2022/03/20 11:14:19;;;;;;;6.55;5.85;;;;;;;;;;5103207;28;20394;-63
2022/03/20 11:16:46;;;;;;;6.97;5.82;;;;;;;;;;5105573;28;20028;-61
2022/03/20 11:19:12;;;;;;;6.57;5.68;;;;;;;;;;5107238;28;20044;-61
2022/03/20 11:21:40;;;;;;;7.88;6.32;;;;;;;;;;5102942;28;20028;-62
2022/03/20 11:24:05;;;;;;;6.63;5.88;;;;;;;;;;5113552;28;20057;-63
2022/03/20 11:26:31;;;;;;;8.50;5.82;;;;;;;;;;5105790;28;20019;-63
2022/03/20 11:29:01;;;;;;;6.97;5.68;;;;;;;;;;5109840;28;20046;-63
2022/03/20 11:31:27;;;;;;;6.15;5.55;;;;;;;;;;5113032;28;20047;-64
2022/03/20 11:33:54;;;;;;;6.47;5.65;;;;;;;;;;5113285;28;20060;-61
2022/03/20 11:36:19;;;;;;;6.50;5.30;;;;;;;;;;5113467;28;20076;-63
2022/03/20 11:39:05;;;;;;;7.25;5.50;;;;;;;;;;5098250;28;20016;-63
2022/03/20 11:41:30;;;;;;;9.57;5.82;;;;;;;;;;5096512;28;20107;-63
2022/03/20 11:44:23;;;;;;;7.47;5.53;;;;;;;;;;5105860;28;20107;-63
2022/03/20 11:47:06;;;;;;;7.10;5.68;;;;;;;;;;5107612;27;20277;-65
2022/03/20 11:49:31;;;;;;;7.93;5.95;;;;;;;;;;5099455;28;20028;-64
2022/03/20 11:51:57;;;;;;;7.78;5.93;;;;;;;;;;5091762;28;20117;-65
2022/03/20 11:54:28;;;;;;;8.13;6.30;;;;;;;;;;5101757;28;20019;-62
2022/03/20 11:56:54;;;;;;;7.95;5.95;;;;;;;;;;5103246;28;20044;-64
2022/03/20 11:59:38;;;;;;;6.22;5.63;;;;;;;;;;5106183;28;20024;-63
2022/03/20 12:02:04;;;;;;;5.70;5.07;;;;;;;;;;5097338;28;20019;-63
2022/03/20 12:04:39;;;;;;;6.32;5.05;;;;;;;;;;5101200;28;20029;-63
2022/03/20 12:07:16;;;;;;;6.90;5.53;;;;;;;;;;5104258;28;20040;-64
2022/03/20 12:09:50;;;;;;;8.10;5.55;;;;;;;;;;5099257;28;20049;-64
2022/03/20 12:12:34;;;;;;;6.13;5.43;;;;;;;;;;5104489;27;20046;-63
2022/03/20 12:15:06;;;;;;;5.80;5.00;;;;;;;;;;5112782;28;20073;-63
2022/03/20 12:17:49;;;;;;;6.05;4.82;;;;;;;;;;5109465;27;20051;-63
2022/03/20 12:20:34;;;;;;;5.13;4.63;;;;;;;;;;5093161;28;20020;-63
2022/03/20 12:22:59;;;;;;;;;;;;;;;;;;5107536;28;20012;-63
2022/03/20 12:25:42;;;;;;;4.35;3.95;;;;;;;;;;5093001;28;19923;-63
2022/03/20 12:28:26;;;;;;;4.28;3.92;;;;;;;;;;5105023;28;20031;-64
2022/03/20 12:30:52;;;;;;;4.13;3.83;;;;;;;;;;5111178;28;20030;-64
2022/03/20 12:33:25;;;;;;;4.57;4.17;;;;;;;;;;5104126;28;20103;-64
2022/03/20 12:35:50;;;;;;;4.40;4.00;;;;;;;;;;5103471;28;20076;-59
2022/03/20 12:38:35;;;;;;;7.38;5.18;;;;;;;;;;5109892;28;20023;-63
2022/03/20 12:41:08;;;;;;;4.43;4.10;;;;;;;;;;5112109;28;20023;-62
2022/03/20 12:43:33;;;;;;;7.10;4.07;;;;;;;;;;5104802;28;20380;-63
2022/03/20 12:46:00;;;;;;;5.83;4.73;;;;;;;;;;5106457;28;20028;-63
2022/03/20 12:48:30;;;;;;;5.53;4.15;;;;;;;;;;5107282;28;20026;-64
2022/03/20 12:50:57;;;;;;;4.85;3.67;;;;;;;;;;5099436;28;20027;-64
2022/03/20 12:53:24;;;;;;;5.43;4.20;;;;;;;;;;5104473;28;20043;-64
2022/03/20 12:55:59;;;;;;;4.20;3.90;;;;;;;;;;5099818;28;20102;-63
2022/03/20 12:58:25;;;;;;;4.97;4.57;;;;;;;;;;5102955;28;20051;-66
2022/03/20 13:00:52;;;;;;;4.20;3.80;;;;;;;;;;5102087;28;20051;-64
2022/03/20 13:03:18;;;;;;;4.75;4.18;;;;;;;;;;5096985;28;20026;-65
2022/03/20 13:05:46;;;;;;;6.00;3.83;;;;;;;;;;5111540;28;20488;-66
2022/03/20 13:08:21;;;;;;;4.43;4.05;;;;;;;;;;5110722;28;20023;-64
2022/03/20 13:10:47;;;;;;;6.75;3.97;;;;;;;;;;5107054;28;20043;-64
2022/03/20 13:13:16;;;;;;;4.22;3.83;;;;;;;;;;5109963;28;20468;-64
2022/03/20 13:15:41;;;;;;;4.32;4.00;;;;;;;;;;5101626;28;20027;-60
2022/03/20 13:18:07;;;;;;;4.73;4.10;;;;;;;;;;5105926;28;20127;-63
2022/03/20 13:20:37;;;;;;;3.90;3.55;;;;;;;;;;5099958;28;20745;-63
2022/03/20 13:23:06;;;;;;;4.30;4.00;;;;;;;;;;5100711;28;20011;-61
2022/03/20 13:25:32;;;;;;;4.50;4.07;;;;;;;;;;5094466;28;20068;-62
2022/03/20 13:27:57;;;;;;;4.47;4.18;;;;;;;;;;5095272;28;20028;-65
2022/03/20 13:30:32;;;;;;;4.18;3.78;;;;;;;;;;5099459;28;20012;-66
2022/03/20 13:32:57;;;;;;;3.92;3.53;;;;;;;;;;5100974;28;20145;-63
2022/03/20 13:35:23;;;;;;;4.22;3.92;;;;;;;;;;5101498;28;20482;-64
2022/03/20 13:37:56;;;;;;;4.88;3.70;;;;;;;;;;5095823;28;20178;-69
2022/03/20 13:40:22;;;;;;;5.32;3.22;;;;;;;;;;5098766;28;20019;-60
2022/03/20 13:42:47;;;;;;;3.50;3.20;;;;;;;;;;5103131;28;20076;-60
2022/03/20 13:45:13;;;;;;;3.67;3.37;;;;;;;;;;5099919;28;20024;-61
2022/03/20 13:47:40;;;;;;;4.45;4.05;;;;;;;;;;5098046;28;20073;-61
2022/03/20 13:50:05;;;;;;;3.42;3.22;;;;;;;;;;5100732;28;20115;-62
2022/03/20 13:52:37;;;;;;;5.32;3.60;;;;;;;;;;5100873;28;20114;-65
2022/03/20 13:55:02;;;;;;;4.40;3.80;;;;;;;;;;5103528;28;20038;-65
2022/03/20 13:57:30;;;;;;;3.87;3.40;;;;;;;;;;5101147;28;20036;-64
2022/03/20 13:59:56;;;;;;;3.80;3.50;;;;;;;;;;5100098;28;20307;-65
2022/03/20 14:02:22;;;;;;;4.13;3.72;;;;;;;;;;5105484;28;20032;-64
2022/03/20 14:04:48;;;;;;;3.70;3.40;;;;;;;;;;5105827;28;20198;-63
2022/03/20 14:07:18;;;;;;;4.95;3.72;;;;;;;;;;5107425;28;20874;-64
2022/03/20 14:09:43;;;;;;;4.53;3.25;;;;;;;;;;5109471;28;20035;-63
2022/03/20 14:12:27;;;;;;;5.15;3.63;;;;;;;;;;5110479;28;20080;-64
2022/03/20 14:14:54;;;;;;;5.20;3.30;;;;;;;;;;5103703;28;20025;-64
2022/03/20 14:17:23;;;;;;;5.72;4.03;;;;;;;;;;5100176;28;20464;-64
2022/03/20 14:19:49;;;;;;;6.45;3.92;;;;;;;;;;5104192;28;20024;-62
2022/03/20 14:22:14;;;;;;;6.55;3.58;;;;;;;;;;5112947;28;20019;-65
2022/03/20 14:24:57;;;;;;;4.38;3.85;;;;;;;;;;5109167;28;20027;-62
2022/03/20 14:27:29;;;;;;;4.65;3.70;;;;;;;;;;5111159;28;20458;-63
2022/03/20 14:40:54;;;;;;;4.60;3.78;;;;;;;;;;5105619;28;20643;-63
2022/03/20 14:43:24;;;;;;;5.85;3.95;;;;;;;;;;5099906;28;20028;-63
2022/03/20 14:45:50;;;;;;;4.05;3.65;;;;;;;;;;5099985;28;20057;-63
2022/03/20 14:48:17;;;;;;;5.43;3.55;;;;;;;;;;5103791;28;20032;-63
2022/03/20 14:50:42;;;;;;;7.75;3.90;;;;;;;;;;5103355;27;20107;-64
2022/03/20 14:53:07;;;;;;;6.18;3.95;;;;;;;;;;5101657;28;20106;-62
2022/03/20 14:55:32;;;;;;;4.47;3.42;;;;;;;;;;5099542;28;20016;-63
2022/03/20 14:58:00;;;;;;;4.05;3.65;;;;;;;;;;5103120;28;20051;-60
2022/03/20 15:00:26;;;;;;;4.68;4.10;;;;;;;;;;5107929;28;20017;-63
2022/03/20 15:02:51;;;;;;;3.95;3.58;;;;;;;;;;5104367;28;20111;-63
2022/03/20 15:05:16;;;;;;;5.28;4.43;;;;;;;;;;5103096;28;20090;-63
2022/03/20 15:11:23;;;;;;;4.55;3.53;;;;;;;;;;5102995;28;20019;-63
2022/03/20 15:13:11;;;;;;;7.07;5.95;;;;;;;;;;5100269;28;20063;-60
2022/03/20 15:15:37;;;;;;;7.15;6.45;;;;;;;;;;5104966;28;20047;-60
2022/03/20 15:18:03;;;;;;;5.40;4.35;;;;;;;;;;5104207;28;20020;-65
2022/03/20 15:20:29;;;;;;;5.13;4.40;;;;;;;;;;5102475;28;20025;-65